sensor_id;sensor_type;location;lat;lon;timestamp;temperature;humidity
56725;DHT22;42608;52.776;6.968;2023-08-20T00:00:14;18.30;99.90
56725;DHT22;42608;52.776;6.968;2023-08-20T00:02:41;18.30;99.90
56725;DHT22;42608;52.776;6.968;2023-08-20T00:05:07;18.30;99.90
56725;DHT22;42608;52.776;6.968;2023-08-20T00:07:33;18.30;99.90
56725;DHT22;42608;52.776;6.968;2023-08-20T00:09:58;18.30;99.90
56725;DHT22;42608;52.776;6.968;2023-08-20T00:12:24;18.30;99.90
56725;DHT22;42608;52.776;6.968;2023-08-20T00:15:01;18.30;99.90
56725;DHT22;42608;52.776;6.968;2023-08-20T00:17:34;18.20;99.90
56725;DHT22;42608;52.776;6.968;2023-08-20T00:19:59;18.30;99.90
56725;DHT22;42608;52.776;6.968;2023-08-20T00:22:25;18.20;99.90
56725;DHT22;42608;52.776;6.968;2023-08-20T00:24:54;18.20;99.90
56725;DHT22;42608;52.776;6.968;2023-08-20T00:27:20;18.20;99.90
56725;DHT22;42608;52.776;6.968;2023-08-20T00:29:46;18.10;99.90
56725;DHT22;42608;52.776;6.968;2023-08-20T00:32:11;18.10;99.90
56725;DHT22;42608;52.776;6.968;2023-08-20T00:34:37;18.10;99.90
56725;DHT22;42608;52.776;6.968;2023-08-20T00:37:02;18.10;99.90
56725;DHT22;42608;52.776;6.968;2023-08-20T00:39:28;18.10;99.90
56725;DHT22;42608;52.776;6.968;2023-08-20T00:41:54;18.00;99.90
56725;DHT22;42608;52.776;6.968;2023-08-20T00:44:20;18.10;99.90
56725;DHT22;42608;52.776;6.968;2023-08-20T00:46:45;18.10;99.90
56725;DHT22;42608;52.776;6.968;2023-08-20T00:49:11;18.00;99.90
56725;DHT22;42608;52.776;6.968;2023-08-20T00:51:36;18.00;99.90
56725;DHT22;42608;52.776;6.968;2023-08-20T00:54:02;18.00;99.90
56725;DHT22;42608;52.776;6.968;2023-08-20T00:56:28;18.00;99.90
56725;DHT22;42608;52.776;6.968;2023-08-20T00:58:54;18.00;99.90
56725;DHT22;42608;52.776;6.968;2023-08-20T01:01:21;18.00;99.90
56725;DHT22;42608;52.776;6.968;2023-08-20T01:03:46;17.90;99.90
56725;DHT22;42608;52.776;6.968;2023-08-20T01:06:13;17.90;99.90
56725;DHT22;42608;52.776;6.968;2023-08-20T01:08:45;17.80;99.90
56725;DHT22;42608;52.776;6.968;2023-08-20T01:11:16;17.70;99.90
56725;DHT22;42608;52.776;6.968;2023-08-20T01:13:42;17.60;99.90
56725;DHT22;42608;52.776;6.968;2023-08-20T01:16:08;17.60;99.90
56725;DHT22;42608;52.776;6.968;2023-08-20T01:18:33;17.60;99.90
56725;DHT22;42608;52.776;6.968;2023-08-20T01:21:01;17.60;99.90
56725;DHT22;42608;52.776;6.968;2023-08-20T01:28:37;17.60;99.90
56725;DHT22;42608;52.776;6.968;2023-08-20T01:31:04;17.70;99.90
56725;DHT22;42608;52.776;6.968;2023-08-20T01:33:30;17.70;99.90
56725;DHT22;42608;52.776;6.968;2023-08-20T01:36:00;17.70;99.90
56725;DHT22;42608;52.776;6.968;2023-08-20T01:38:25;17.70;99.90
56725;DHT22;42608;52.776;6.968;2023-08-20T01:40:51;17.70;99.90
56725;DHT22;42608;52.776;6.968;2023-08-20T01:43:16;17.70;99.90
56725;DHT22;42608;52.776;6.968;2023-08-20T01:45:42;17.70;99.90
56725;DHT22;42608;52.776;6.968;2023-08-20T01:48:07;17.70;99.90
56725;DHT22;42608;52.776;6.968;2023-08-20T01:50:36;17.70;99.90
56725;DHT22;42608;52.776;6.968;2023-08-20T01:53:02;17.70;99.90
56725;DHT22;42608;52.776;6.968;2023-08-20T01:55:30;17.70;99.90
56725;DHT22;42608;52.776;6.968;2023-08-20T01:57:56;17.70;99.90
56725;DHT22;42608;52.776;6.968;2023-08-20T02:00:21;17.70;99.90
56725;DHT22;42608;52.776;6.968;2023-08-20T02:02:47;17.70;99.90
56725;DHT22;42608;52.776;6.968;2023-08-20T02:05:12;17.70;99.90
56725;DHT22;42608;52.776;6.968;2023-08-20T02:07:38;17.70;99.90
56725;DHT22;42608;52.776;6.968;2023-08-20T02:10:04;17.60;99.90
56725;DHT22;42608;52.776;6.968;2023-08-20T02:12:29;17.70;99.90
56725;DHT22;42608;52.776;6.968;2023-08-20T02:14:55;17.70;99.90
56725;DHT22;42608;52.776;6.968;2023-08-20T02:17:20;17.70;99.90
56725;DHT22;42608;52.776;6.968;2023-08-20T02:19:46;17.70;99.90
56725;DHT22;42608;52.776;6.968;2023-08-20T02:22:12;17.70;99.90
56725;DHT22;42608;52.776;6.968;2023-08-20T02:24:37;17.60;99.90
56725;DHT22;42608;52.776;6.968;2023-08-20T02:27:03;17.60;99.90
56725;DHT22;42608;52.776;6.968;2023-08-20T02:29:29;17.70;99.90
56725;DHT22;42608;52.776;6.968;2023-08-20T02:31:54;17.60;99.90
56725;DHT22;42608;52.776;6.968;2023-08-20T02:34:20;17.60;99.90
56725;DHT22;42608;52.776;6.968;2023-08-20T02:36:45;17.60;99.90
56725;DHT22;42608;52.776;6.968;2023-08-20T02:39:13;17.50;99.90
56725;DHT22;42608;52.776;6.968;2023-08-20T02:41:38;17.50;99.90
56725;DHT22;42608;52.776;6.968;2023-08-20T02:44:04;17.50;99.90
56725;DHT22;42608;52.776;6.968;2023-08-20T02:46:29;17.50;99.90
56725;DHT22;42608;52.776;6.968;2023-08-20T02:48:55;17.50;99.90
56725;DHT22;42608;52.776;6.968;2023-08-20T02:51:21;17.50;99.90
56725;DHT22;42608;52.776;6.968;2023-08-20T02:53:46;17.50;99.90
56725;DHT22;42608;52.776;6.968;2023-08-20T02:56:12;17.50;99.90
56725;DHT22;42608;52.776;6.968;2023-08-20T02:58:37;17.50;99.90
56725;DHT22;42608;52.776;6.968;2023-08-20T03:01:03;17.60;99.90
56725;DHT22;42608;52.776;6.968;2023-08-20T03:03:28;17.60;99.90
56725;DHT22;42608;52.776;6.968;2023-08-20T03:05:54;17.50;99.90
56725;DHT22;42608;52.776;6.968;2023-08-20T03:08:20;17.50;99.90
56725;DHT22;42608;52.776;6.968;2023-08-20T03:10:45;17.50;99.90
56725;DHT22;42608;52.776;6.968;2023-08-20T03:13:11;17.50;99.90
56725;DHT22;42608;52.776;6.968;2023-08-20T03:15:37;17.40;99.90
56725;DHT22;42608;52.776;6.968;2023-08-20T03:18:02;17.40;99.90
56725;DHT22;42608;52.776;6.968;2023-08-20T03:20:28;17.40;99.90
56725;DHT22;42608;52.776;6.968;2023-08-20T03:22:56;17.40;99.90
56725;DHT22;42608;52.776;6.968;2023-08-20T03:25:22;17.30;99.90
56725;DHT22;42608;52.776;6.968;2023-08-20T03:27:53;17.30;99.90
56725;DHT22;42608;52.776;6.968;2023-08-20T03:30:19;17.30;99.90
56725;DHT22;42608;52.776;6.968;2023-08-20T03:32:44;17.20;99.90
56725;DHT22;42608;52.776;6.968;2023-08-20T03:35:10;17.20;99.90
56725;DHT22;42608;52.776;6.968;2023-08-20T03:37:36;17.20;99.90
56725;DHT22;42608;52.776;6.968;2023-08-20T03:40:01;17.20;99.90
56725;DHT22;42608;52.776;6.968;2023-08-20T03:42:27;17.20;99.90
56725;DHT22;42608;52.776;6.968;2023-08-20T03:44:53;17.10;99.90
56725;DHT22;42608;52.776;6.968;2023-08-20T03:47:18;17.10;99.90
56725;DHT22;42608;52.776;6.968;2023-08-20T03:49:47;17.10;99.90
56725;DHT22;42608;52.776;6.968;2023-08-20T03:52:15;17.10;99.90
56725;DHT22;42608;52.776;6.968;2023-08-20T03:54:41;17.10;99.90
56725;DHT22;42608;52.776;6.968;2023-08-20T03:57:06;17.10;99.90
56725;DHT22;42608;52.776;6.968;2023-08-20T03:59:32;17.10;99.90
56725;DHT22;42608;52.776;6.968;2023-08-20T04:01:58;17.10;99.90
56725;DHT22;42608;52.776;6.968;2023-08-20T04:04:24;17.10;99.90
56725;DHT22;42608;52.776;6.968;2023-08-20T04:06:50;17.10;99.90
56725;DHT22;42608;52.776;6.968;2023-08-20T04:09:16;17.10;99.90
56725;DHT22;42608;52.776;6.968;2023-08-20T04:11:42;17.10;99.90
56725;DHT22;42608;52.776;6.968;2023-08-20T04:14:07;17.10;99.90
56725;DHT22;42608;52.776;6.968;2023-08-20T04:16:33;17.00;99.90
56725;DHT22;42608;52.776;6.968;2023-08-20T04:18:59;17.00;99.90
56725;DHT22;42608;52.776;6.968;2023-08-20T04:21:24;16.90;99.90
56725;DHT22;42608;52.776;6.968;2023-08-20T04:23:50;16.90;99.90
56725;DHT22;42608;52.776;6.968;2023-08-20T04:26:16;16.80;99.90
56725;DHT22;42608;52.776;6.968;2023-08-20T04:28:41;16.90;99.90
56725;DHT22;42608;52.776;6.968;2023-08-20T04:31:07;16.90;99.90
56725;DHT22;42608;52.776;6.968;2023-08-20T04:33:32;16.90;99.90
56725;DHT22;42608;52.776;6.968;2023-08-20T04:35:58;16.90;99.90
56725;DHT22;42608;52.776;6.968;2023-08-20T04:38:23;16.90;99.90
56725;DHT22;42608;52.776;6.968;2023-08-20T04:40:49;17.00;99.90
56725;DHT22;42608;52.776;6.968;2023-08-20T04:43:15;17.00;99.90
56725;DHT22;42608;52.776;6.968;2023-08-20T04:45:41;17.00;99.90
56725;DHT22;42608;52.776;6.968;2023-08-20T04:48:07;17.00;99.90
56725;DHT22;42608;52.776;6.968;2023-08-20T04:50:32;17.00;99.90
56725;DHT22;42608;52.776;6.968;2023-08-20T04:52:58;17.10;99.90
56725;DHT22;42608;52.776;6.968;2023-08-20T04:55:27;17.00;99.90
56725;DHT22;42608;52.776;6.968;2023-08-20T04:57:53;17.00;99.90
56725;DHT22;42608;52.776;6.968;2023-08-20T05:00:19;17.10;99.90
56725;DHT22;42608;52.776;6.968;2023-08-20T05:02:47;17.00;99.90
56725;DHT22;42608;52.776;6.968;2023-08-20T05:05:13;17.10;99.90
56725;DHT22;42608;52.776;6.968;2023-08-20T05:07:39;17.10;99.90
56725;DHT22;42608;52.776;6.968;2023-08-20T05:10:05;17.00;99.90
56725;DHT22;42608;52.776;6.968;2023-08-20T05:12:30;17.10;99.90
56725;DHT22;42608;52.776;6.968;2023-08-20T05:14:56;17.10;99.90
56725;DHT22;42608;52.776;6.968;2023-08-20T05:17:21;17.10;99.90
56725;DHT22;42608;52.776;6.968;2023-08-20T05:19:47;17.10;99.90
56725;DHT22;42608;52.776;6.968;2023-08-20T05:22:12;17.10;99.90
56725;DHT22;42608;52.776;6.968;2023-08-20T05:24:38;17.10;99.90
56725;DHT22;42608;52.776;6.968;2023-08-20T05:29:32;17.10;99.90
56725;DHT22;42608;52.776;6.968;2023-08-20T05:31:58;17.10;99.90
56725;DHT22;42608;52.776;6.968;2023-08-20T05:34:24;17.10;99.90
56725;DHT22;42608;52.776;6.968;2023-08-20T05:36:49;17.10;99.90
56725;DHT22;42608;52.776;6.968;2023-08-20T05:39:15;17.10;99.90
56725;DHT22;42608;52.776;6.968;2023-08-20T05:41:40;17.10;99.90
56725;DHT22;42608;52.776;6.968;2023-08-20T05:44:06;17.10;99.90
56725;DHT22;42608;52.776;6.968;2023-08-20T05:46:31;17.10;99.90
56725;DHT22;42608;52.776;6.968;2023-08-20T05:48:57;17.10;99.90
56725;DHT22;42608;52.776;6.968;2023-08-20T05:51:22;17.20;99.90
56725;DHT22;42608;52.776;6.968;2023-08-20T05:53:48;17.20;99.90
56725;DHT22;42608;52.776;6.968;2023-08-20T05:56:13;17.20;99.90
56725;DHT22;42608;52.776;6.968;2023-08-20T05:58:39;17.20;99.90
56725;DHT22;42608;52.776;6.968;2023-08-20T06:01:05;17.20;99.90
56725;DHT22;42608;52.776;6.968;2023-08-20T06:03:30;17.20;99.90
56725;DHT22;42608;52.776;6.968;2023-08-20T06:05:57;17.30;99.90
56725;DHT22;42608;52.776;6.968;2023-08-20T06:08:23;17.30;99.90
56725;DHT22;42608;52.776;6.968;2023-08-20T06:10:48;17.30;99.90
56725;DHT22;42608;52.776;6.968;2023-08-20T06:13:14;17.30;99.90
56725;DHT22;42608;52.776;6.968;2023-08-20T06:15:39;17.40;99.90
56725;DHT22;42608;52.776;6.968;2023-08-20T06:18:05;17.40;99.90
56725;DHT22;42608;52.776;6.968;2023-08-20T06:20:31;17.50;99.90
56725;DHT22;42608;52.776;6.968;2023-08-20T06:22:56;17.40;99.90
56725;DHT22;42608;52.776;6.968;2023-08-20T06:25:22;17.50;99.90
56725;DHT22;42608;52.776;6.968;2023-08-20T06:27:47;17.60;99.90
56725;DHT22;42608;52.776;6.968;2023-08-20T06:30:13;17.60;99.90
56725;DHT22;42608;52.776;6.968;2023-08-20T06:32:38;17.60;99.90
56725;DHT22;42608;52.776;6.968;2023-08-20T06:35:04;17.70;99.90
56725;DHT22;42608;52.776;6.968;2023-08-20T06:37:30;17.70;99.90
56725;DHT22;42608;52.776;6.968;2023-08-20T06:39:55;17.70;99.90
56725;DHT22;42608;52.776;6.968;2023-08-20T06:42:21;17.80;99.90
56725;DHT22;42608;52.776;6.968;2023-08-20T06:44:46;17.80;99.90
56725;DHT22;42608;52.776;6.968;2023-08-20T06:47:12;17.90;99.90
56725;DHT22;42608;52.776;6.968;2023-08-20T06:49:38;17.90;99.90
56725;DHT22;42608;52.776;6.968;2023-08-20T06:52:04;18.00;99.90
56725;DHT22;42608;52.776;6.968;2023-08-20T06:54:29;18.10;99.90
56725;DHT22;42608;52.776;6.968;2023-08-20T06:56:55;18.10;99.90
56725;DHT22;42608;52.776;6.968;2023-08-20T06:59:20;18.10;99.90
56725;DHT22;42608;52.776;6.968;2023-08-20T07:01:46;18.20;99.90
56725;DHT22;42608;52.776;6.968;2023-08-20T07:04:12;18.20;99.90
56725;DHT22;42608;52.776;6.968;2023-08-20T07:06:38;18.20;99.90
56725;DHT22;42608;52.776;6.968;2023-08-20T07:09:04;18.30;99.90
56725;DHT22;42608;52.776;6.968;2023-08-20T07:11:29;18.30;99.90
56725;DHT22;42608;52.776;6.968;2023-08-20T07:13:55;18.40;99.90
56725;DHT22;42608;52.776;6.968;2023-08-20T07:16:20;18.40;99.90
56725;DHT22;42608;52.776;6.968;2023-08-20T07:18:52;18.40;99.90
56725;DHT22;42608;52.776;6.968;2023-08-20T07:21:18;18.50;99.90
56725;DHT22;42608;52.776;6.968;2023-08-20T07:23:44;18.50;99.90
56725;DHT22;42608;52.776;6.968;2023-08-20T07:26:10;18.60;99.90
56725;DHT22;42608;52.776;6.968;2023-08-20T07:28:37;18.60;99.90
56725;DHT22;42608;52.776;6.968;2023-08-20T07:31:28;18.70;99.90
56725;DHT22;42608;52.776;6.968;2023-08-20T07:33:54;18.70;99.90
56725;DHT22;42608;52.776;6.968;2023-08-20T07:36:21;18.80;99.90
56725;DHT22;42608;52.776;6.968;2023-08-20T07:38:47;18.80;99.90
56725;DHT22;42608;52.776;6.968;2023-08-20T07:41:13;18.90;99.90
56725;DHT22;42608;52.776;6.968;2023-08-20T07:43:39;18.90;99.90
56725;DHT22;42608;52.776;6.968;2023-08-20T07:46:05;19.00;99.90
56725;DHT22;42608;52.776;6.968;2023-08-20T07:48:31;19.00;99.90
56725;DHT22;42608;52.776;6.968;2023-08-20T07:50:57;19.00;99.90
56725;DHT22;42608;52.776;6.968;2023-08-20T07:53:23;19.10;99.90
56725;DHT22;42608;52.776;6.968;2023-08-20T07:55:48;19.10;99.90
56725;DHT22;42608;52.776;6.968;2023-08-20T07:58:14;19.10;99.90
56725;DHT22;42608;52.776;6.968;2023-08-20T08:00:40;19.20;99.90
56725;DHT22;42608;52.776;6.968;2023-08-20T08:03:05;19.20;99.90
56725;DHT22;42608;52.776;6.968;2023-08-20T08:05:31;19.30;99.90
56725;DHT22;42608;52.776;6.968;2023-08-20T08:07:57;19.40;99.90
56725;DHT22;42608;52.776;6.968;2023-08-20T08:10:22;19.40;99.90
56725;DHT22;42608;52.776;6.968;2023-08-20T08:12:48;19.50;99.90
56725;DHT22;42608;52.776;6.968;2023-08-20T08:15:14;19.50;99.90
56725;DHT22;42608;52.776;6.968;2023-08-20T08:17:39;19.60;99.90
56725;DHT22;42608;52.776;6.968;2023-08-20T08:20:05;19.60;99.90
56725;DHT22;42608;52.776;6.968;2023-08-20T08:22:31;19.70;99.90
56725;DHT22;42608;52.776;6.968;2023-08-20T08:24:56;19.60;99.90
56725;DHT22;42608;52.776;6.968;2023-08-20T08:27:22;19.70;99.90
56725;DHT22;42608;52.776;6.968;2023-08-20T08:29:47;19.80;99.90
56725;DHT22;42608;52.776;6.968;2023-08-20T08:32:13;19.80;99.90
56725;DHT22;42608;52.776;6.968;2023-08-20T08:34:39;19.80;99.90
56725;DHT22;42608;52.776;6.968;2023-08-20T08:37:04;19.90;99.90
56725;DHT22;42608;52.776;6.968;2023-08-20T08:39:30;19.90;99.90
56725;DHT22;42608;52.776;6.968;2023-08-20T08:41:57;20.00;99.90
56725;DHT22;42608;52.776;6.968;2023-08-20T08:44:24;20.00;99.90
56725;DHT22;42608;52.776;6.968;2023-08-20T08:46:50;20.10;99.90
56725;DHT22;42608;52.776;6.968;2023-08-20T08:49:16;20.20;99.90
56725;DHT22;42608;52.776;6.968;2023-08-20T08:51:42;20.20;99.90
56725;DHT22;42608;52.776;6.968;2023-08-20T08:54:09;20.30;99.90
56725;DHT22;42608;52.776;6.968;2023-08-20T08:56:35;20.30;99.90
56725;DHT22;42608;52.776;6.968;2023-08-20T08:59:01;20.40;99.90
56725;DHT22;42608;52.776;6.968;2023-08-20T09:01:26;20.40;99.90
56725;DHT22;42608;52.776;6.968;2023-08-20T09:03:52;20.50;99.90
56725;DHT22;42608;52.776;6.968;2023-08-20T09:06:17;20.60;99.90
56725;DHT22;42608;52.776;6.968;2023-08-20T09:08:43;20.70;99.90
56725;DHT22;42608;52.776;6.968;2023-08-20T09:11:08;20.80;99.90
56725;DHT22;42608;52.776;6.968;2023-08-20T09:13:38;20.80;99.90
56725;DHT22;42608;52.776;6.968;2023-08-20T09:16:04;20.80;99.90
56725;DHT22;42608;52.776;6.968;2023-08-20T09:18:31;20.90;99.90
56725;DHT22;42608;52.776;6.968;2023-08-20T09:20:57;21.00;99.90
56725;DHT22;42608;52.776;6.968;2023-08-20T09:23:22;21.10;99.90
56725;DHT22;42608;52.776;6.968;2023-08-20T09:25:48;21.10;99.90
56725;DHT22;42608;52.776;6.968;2023-08-20T09:28:14;21.20;99.90
56725;DHT22;42608;52.776;6.968;2023-08-20T09:30:39;21.20;99.90
56725;DHT22;42608;52.776;6.968;2023-08-20T09:33:10;21.30;99.90
56725;DHT22;42608;52.776;6.968;2023-08-20T09:35:36;21.30;99.90
56725;DHT22;42608;52.776;6.968;2023-08-20T09:38:05;21.30;99.90
56725;DHT22;42608;52.776;6.968;2023-08-20T09:40:31;21.40;99.90
56725;DHT22;42608;52.776;6.968;2023-08-20T09:42:57;21.50;99.90
56725;DHT22;42608;52.776;6.968;2023-08-20T09:45:26;21.50;99.90
56725;DHT22;42608;52.776;6.968;2023-08-20T09:47:54;21.60;99.90
56725;DHT22;42608;52.776;6.968;2023-08-20T09:50:21;21.60;99.90
56725;DHT22;42608;52.776;6.968;2023-08-20T09:52:48;21.70;99.90
56725;DHT22;42608;52.776;6.968;2023-08-20T09:55:22;21.70;99.90
56725;DHT22;42608;52.776;6.968;2023-08-20T09:57:48;21.70;99.90
56725;DHT22;42608;52.776;6.968;2023-08-20T10:00:13;21.80;99.90
56725;DHT22;42608;52.776;6.968;2023-08-20T10:02:40;21.80;99.90
56725;DHT22;42608;52.776;6.968;2023-08-20T10:05:06;21.90;99.90
56725;DHT22;42608;52.776;6.968;2023-08-20T10:07:33;22.10;99.90
56725;DHT22;42608;52.776;6.968;2023-08-20T10:10:00;22.10;99.90
56725;DHT22;42608;52.776;6.968;2023-08-20T10:12:29;22.20;99.90
56725;DHT22;42608;52.776;6.968;2023-08-20T10:14:56;22.20;99.90
56725;DHT22;42608;52.776;6.968;2023-08-20T10:17:22;22.20;99.90
56725;DHT22;42608;52.776;6.968;2023-08-20T10:19:48;22.20;99.90
56725;DHT22;42608;52.776;6.968;2023-08-20T10:22:13;22.30;99.90
56725;DHT22;42608;52.776;6.968;2023-08-20T10:24:40;22.40;99.90
56725;DHT22;42608;52.776;6.968;2023-08-20T10:27:09;22.40;99.90
56725;DHT22;42608;52.776;6.968;2023-08-20T10:32:02;22.40;99.90
56725;DHT22;42608;52.776;6.968;2023-08-20T10:34:32;22.40;99.90
56725;DHT22;42608;52.776;6.968;2023-08-20T10:37:01;22.50;99.90
56725;DHT22;42608;52.776;6.968;2023-08-20T10:39:26;22.50;99.90
56725;DHT22;42608;52.776;6.968;2023-08-20T10:44:59;22.60;99.90
56725;DHT22;42608;52.776;6.968;2023-08-20T10:47:25;22.60;99.90
56725;DHT22;42608;52.776;6.968;2023-08-20T10:49:54;22.70;99.90
56725;DHT22;42608;52.776;6.968;2023-08-20T10:52:22;22.70;99.90
56725;DHT22;42608;52.776;6.968;2023-08-20T10:54:49;22.80;99.90
56725;DHT22;42608;52.776;6.968;2023-08-20T10:57:15;22.80;99.90
56725;DHT22;42608;52.776;6.968;2023-08-20T10:59:40;22.90;99.90
56725;DHT22;42608;52.776;6.968;2023-08-20T11:02:07;22.90;99.90
56725;DHT22;42608;52.776;6.968;2023-08-20T11:04:34;22.90;99.90
56725;DHT22;42608;52.776;6.968;2023-08-20T11:07:00;23.00;99.90
56725;DHT22;42608;52.776;6.968;2023-08-20T11:09:26;23.00;99.90
56725;DHT22;42608;52.776;6.968;2023-08-20T11:11:52;23.00;99.90
56725;DHT22;42608;52.776;6.968;2023-08-20T11:14:19;23.10;99.90
56725;DHT22;42608;52.776;6.968;2023-08-20T11:16:45;23.10;99.90
56725;DHT22;42608;52.776;6.968;2023-08-20T11:19:11;23.10;99.90
56725;DHT22;42608;52.776;6.968;2023-08-20T11:21:42;23.10;99.90
56725;DHT22;42608;52.776;6.968;2023-08-20T11:24:08;23.20;99.90
56725;DHT22;42608;52.776;6.968;2023-08-20T11:26:34;23.30;99.90
56725;DHT22;42608;52.776;6.968;2023-08-20T11:29:01;23.30;99.90
56725;DHT22;42608;52.776;6.968;2023-08-20T11:31:26;23.40;99.90
56725;DHT22;42608;52.776;6.968;2023-08-20T11:33:52;23.40;99.90
56725;DHT22;42608;52.776;6.968;2023-08-20T11:36:19;23.40;99.90
56725;DHT22;42608;52.776;6.968;2023-08-20T11:38:54;23.50;99.90
56725;DHT22;42608;52.776;6.968;2023-08-20T11:41:20;23.50;99.90
56725;DHT22;42608;52.776;6.968;2023-08-20T11:43:46;23.50;99.90
56725;DHT22;42608;52.776;6.968;2023-08-20T11:46:13;23.50;99.90
56725;DHT22;42608;52.776;6.968;2023-08-20T11:48:57;23.60;99.90
56725;DHT22;42608;52.776;6.968;2023-08-20T11:51:23;23.60;99.90
56725;DHT22;42608;52.776;6.968;2023-08-20T11:53:49;23.70;99.90
56725;DHT22;42608;52.776;6.968;2023-08-20T11:56:14;23.70;99.90
56725;DHT22;42608;52.776;6.968;2023-08-20T11:58:40;23.70;99.90
56725;DHT22;42608;52.776;6.968;2023-08-20T12:01:07;23.70;99.90
56725;DHT22;42608;52.776;6.968;2023-08-20T12:03:33;23.80;99.90
56725;DHT22;42608;52.776;6.968;2023-08-20T12:05:59;23.80;99.90
56725;DHT22;42608;52.776;6.968;2023-08-20T12:08:24;23.90;99.90
56725;DHT22;42608;52.776;6.968;2023-08-20T12:10:50;23.90;99.90
56725;DHT22;42608;52.776;6.968;2023-08-20T12:13:15;24.00;99.90
56725;DHT22;42608;52.776;6.968;2023-08-20T12:15:41;24.00;99.90
56725;DHT22;42608;52.776;6.968;2023-08-20T12:18:06;24.00;99.90
56725;DHT22;42608;52.776;6.968;2023-08-20T12:20:34;24.10;99.90
56725;DHT22;42608;52.776;6.968;2023-08-20T12:23:03;24.10;99.90
56725;DHT22;42608;52.776;6.968;2023-08-20T12:25:30;24.10;99.90
56725;DHT22;42608;52.776;6.968;2023-08-20T12:27:55;24.20;99.90
56725;DHT22;42608;52.776;6.968;2023-08-20T12:30:21;24.20;99.90
56725;DHT22;42608;52.776;6.968;2023-08-20T12:32:47;24.30;99.90
56725;DHT22;42608;52.776;6.968;2023-08-20T12:35:12;24.30;99.90
56725;DHT22;42608;52.776;6.968;2023-08-20T12:37:38;24.40;99.90
56725;DHT22;42608;52.776;6.968;2023-08-20T12:40:05;24.50;99.90
56725;DHT22;42608;52.776;6.968;2023-08-20T12:42:36;24.60;99.90
56725;DHT22;42608;52.776;6.968;2023-08-20T12:45:02;24.70;99.90
56725;DHT22;42608;52.776;6.968;2023-08-20T12:47:28;24.80;99.90
56725;DHT22;42608;52.776;6.968;2023-08-20T12:49:53;24.90;99.90
56725;DHT22;42608;52.776;6.968;2023-08-20T12:52:19;25.00;99.90
56725;DHT22;42608;52.776;6.968;2023-08-20T12:54:45;25.20;99.90
56725;DHT22;42608;52.776;6.968;2023-08-20T12:57:10;25.30;99.90
56725;DHT22;42608;52.776;6.968;2023-08-20T12:59:36;25.40;99.90
56725;DHT22;42608;52.776;6.968;2023-08-20T13:02:01;25.50;99.90
56725;DHT22;42608;52.776;6.968;2023-08-20T13:04:28;25.60;99.90
56725;DHT22;42608;52.776;6.968;2023-08-20T13:06:53;25.60;99.90
56725;DHT22;42608;52.776;6.968;2023-08-20T13:09:19;25.60;99.90
56725;DHT22;42608;52.776;6.968;2023-08-20T13:11:45;25.60;99.90
56725;DHT22;42608;52.776;6.968;2023-08-20T13:14:12;25.60;99.90
56725;DHT22;42608;52.776;6.968;2023-08-20T13:16:38;25.70;99.90
56725;DHT22;42608;52.776;6.968;2023-08-20T13:19:03;25.60;99.90
56725;DHT22;42608;52.776;6.968;2023-08-20T13:21:29;25.60;99.90
56725;DHT22;42608;52.776;6.968;2023-08-20T13:23:55;25.60;99.90
56725;DHT22;42608;52.776;6.968;2023-08-20T13:26:20;25.70;99.90
56725;DHT22;42608;52.776;6.968;2023-08-20T13:28:47;25.70;99.90
56725;DHT22;42608;52.776;6.968;2023-08-20T13:31:13;25.70;99.60
56725;DHT22;42608;52.776;6.968;2023-08-20T13:33:39;25.80;99.30
56725;DHT22;42608;52.776;6.968;2023-08-20T13:36:05;25.80;98.60
56725;DHT22;42608;52.776;6.968;2023-08-20T13:38:32;25.90;97.40
56725;DHT22;42608;52.776;6.968;2023-08-20T13:40:58;25.90;97.80
56725;DHT22;42608;52.776;6.968;2023-08-20T13:43:23;26.00;97.50
56725;DHT22;42608;52.776;6.968;2023-08-20T13:45:49;26.00;97.40
56725;DHT22;42608;52.776;6.968;2023-08-20T13:48:14;26.00;96.70
56725;DHT22;42608;52.776;6.968;2023-08-20T13:50:41;26.10;96.80
56725;DHT22;42608;52.776;6.968;2023-08-20T13:53:07;26.10;97.40
56725;DHT22;42608;52.776;6.968;2023-08-20T13:55:33;26.30;98.00
56725;DHT22;42608;52.776;6.968;2023-08-20T13:57:59;26.20;97.50
56725;DHT22;42608;52.776;6.968;2023-08-20T14:00:25;26.30;97.80
56725;DHT22;42608;52.776;6.968;2023-08-20T14:02:50;26.30;97.90
56725;DHT22;42608;52.776;6.968;2023-08-20T14:05:16;26.40;97.90
56725;DHT22;42608;52.776;6.968;2023-08-20T14:07:41;26.40;97.00
56725;DHT22;42608;52.776;6.968;2023-08-20T14:10:07;26.50;96.60
56725;DHT22;42608;52.776;6.968;2023-08-20T14:12:33;26.60;97.00
56725;DHT22;42608;52.776;6.968;2023-08-20T14:14:59;26.40;96.80
56725;DHT22;42608;52.776;6.968;2023-08-20T14:17:24;26.40;97.10
56725;DHT22;42608;52.776;6.968;2023-08-20T14:19:50;26.40;97.00
56725;DHT22;42608;52.776;6.968;2023-08-20T14:22:17;26.40;96.20
56725;DHT22;42608;52.776;6.968;2023-08-20T14:24:43;26.30;95.90
56725;DHT22;42608;52.776;6.968;2023-08-20T14:27:08;26.40;96.90
56725;DHT22;42608;52.776;6.968;2023-08-20T14:29:34;26.40;96.70
56725;DHT22;42608;52.776;6.968;2023-08-20T14:32:00;26.40;96.40
56725;DHT22;42608;52.776;6.968;2023-08-20T14:34:25;26.30;95.90
56725;DHT22;42608;52.776;6.968;2023-08-20T14:36:51;26.20;96.00
56725;DHT22;42608;52.776;6.968;2023-08-20T14:39:17;26.20;96.40
56725;DHT22;42608;52.776;6.968;2023-08-20T14:41:42;26.20;96.70
56725;DHT22;42608;52.776;6.968;2023-08-20T14:44:08;26.20;96.30
56725;DHT22;42608;52.776;6.968;2023-08-20T14:46:33;26.20;95.40
56725;DHT22;42608;52.776;6.968;2023-08-20T14:48:59;26.20;95.60
56725;DHT22;42608;52.776;6.968;2023-08-20T14:51:24;26.30;96.30
56725;DHT22;42608;52.776;6.968;2023-08-20T14:53:50;26.50;96.10
56725;DHT22;42608;52.776;6.968;2023-08-20T14:56:21;26.50;95.10
56725;DHT22;42608;52.776;6.968;2023-08-20T14:58:47;26.50;95.00
56725;DHT22;42608;52.776;6.968;2023-08-20T15:01:12;26.50;93.60
56725;DHT22;42608;52.776;6.968;2023-08-20T15:03:38;26.50;93.10
56725;DHT22;42608;52.776;6.968;2023-08-20T15:06:05;26.50;94.00
56725;DHT22;42608;52.776;6.968;2023-08-20T15:08:30;26.40;92.40
56725;DHT22;42608;52.776;6.968;2023-08-20T15:10:59;26.40;92.60
56725;DHT22;42608;52.776;6.968;2023-08-20T15:13:28;26.40;92.20
56725;DHT22;42608;52.776;6.968;2023-08-20T15:15:54;26.30;91.80
56725;DHT22;42608;52.776;6.968;2023-08-20T15:18:20;26.30;92.20
56725;DHT22;42608;52.776;6.968;2023-08-20T15:20:52;26.20;92.30
56725;DHT22;42608;52.776;6.968;2023-08-20T15:23:18;26.20;92.00
56725;DHT22;42608;52.776;6.968;2023-08-20T15:25:46;26.20;91.60
56725;DHT22;42608;52.776;6.968;2023-08-20T15:28:12;26.20;91.60
56725;DHT22;42608;52.776;6.968;2023-08-20T15:30:37;26.20;91.30
56725;DHT22;42608;52.776;6.968;2023-08-20T15:33:03;26.20;91.30
56725;DHT22;42608;52.776;6.968;2023-08-20T15:35:28;26.20;90.70